Time;durP1;ratioP1;P1;durP2;ratioP2;P2;SDS_P1;SDS_P2;PMS_P1;PMS_P2;Temp;Humidity;BMP_temperature;BMP_pressure;BME280_temperature;BME280_humidity;BME280_pressure;Samples;Min_cycle;Max_cycle;Signal;HPM_P1;HPM_P2
2024/01/05 00:01:02;;;;;;;25.77;5.72;;;;;;;-146.27;94.89;39562.19;5059099;28;20081;-72
2024/01/05 00:03:27;;;;;;;21.42;6.15;;;;;;;-146.27;94.75;39556.22;5069644;28;20039;-72
2024/01/05 00:05:52;;;;;;;11.32;5.25;;;;;;;-146.27;94.52;39574.13;5065098;28;20029;-72
2024/01/05 00:08:18;;;;;;;22.55;6.10;;;;;;;-146.27;94.32;39546.28;5068070;28;20028;-72
2024/01/05 00:10:43;;;;;;;23.90;5.75;;;;;;;-146.27;94.29;39534.38;5063186;28;20013;-72
2024/01/05 00:13:08;;;;;;;25.20;6.32;;;;;;;-146.27;94.32;39560.22;5067137;28;20036;-71
2024/01/05 00:15:34;;;;;;;16.40;5.43;;;;;;;-146.27;94.24;39584.06;5063634;28;20036;-71
2024/01/05 00:17:59;;;;;;;22.52;5.57;;;;;;;-146.27;94.67;39534.38;5070892;28;20078;-71
2024/01/05 00:20:25;;;;;;;25.17;5.70;;;;;;;-146.27;94.74;39536.34;5068004;28;20040;-71
2024/01/05 00:22:50;;;;;;;28.67;6.40;;;;;;;-146.27;94.78;39528.41;5066740;28;20028;-71
2024/01/05 00:25:20;;;;;;;14.80;5.10;;;;;;;-146.27;94.69;39538.34;5065342;28;20028;-71
2024/01/05 00:27:46;;;;;;;20.88;5.10;;;;;;;-146.27;94.64;39496.63;5068757;28;20498;-71
2024/01/05 00:30:12;;;;;;;23.48;5.35;;;;;;;-146.27;94.64;39510.53;5066547;28;20037;-72
2024/01/05 00:32:38;;;;;;;25.70;5.55;;;;;;;-146.27;94.80;39510.53;5069036;28;20017;-71
2024/01/05 00:35:03;;;;;;;22.13;5.40;;;;;;;-146.27;94.91;39520.47;5077324;28;20050;-72
2024/01/05 00:37:29;;;;;;;21.92;4.80;;;;;;;-146.27;95.03;39546.28;5066872;28;20029;-71
2024/01/05 00:39:54;;;;;;;20.55;5.32;;;;;;;-146.27;94.86;39502.56;5060450;28;20025;-71
2024/01/05 00:42:19;;;;;;;26.55;5.35;;;;;;;-146.27;94.64;39546.28;5066361;28;20364;-72
2024/01/05 00:44:44;;;;;;;21.27;5.47;;;;;;;-146.27;94.80;39486.69;5064221;28;20047;-71
2024/01/05 00:47:10;;;;;;;22.30;5.28;;;;;;;-146.27;95.04;39470.78;5060326;28;20384;-71
2024/01/05 00:49:37;;;;;;;17.92;5.40;;;;;;;-146.27;95.00;39454.88;5061665;28;20349;-71
2024/01/05 00:52:02;;;;;;;17.95;5.53;;;;;;;-146.27;95.09;39454.88;5057408;28;20029;-71
2024/01/05 00:54:28;;;;;;;17.60;4.90;;;;;;;-146.27;94.75;39462.81;5066315;28;20361;-71
2024/01/05 00:56:53;;;;;;;17.30;5.18;;;;;;;-146.27;94.95;39464.81;5060118;28;20082;-71
2024/01/05 00:59:19;;;;;;;13.63;5.85;;;;;;;-146.27;94.77;39464.81;5053850;28;20793;-71
2024/01/05 01:01:44;;;;;;;21.23;5.07;;;;;;;-146.27;94.79;39484.69;5057464;28;20102;-71
2024/01/05 01:04:10;;;;;;;14.20;4.35;;;;;;;-146.27;94.91;39446.94;5060572;28;20437;-71
2024/01/05 01:06:36;;;;;;;17.55;4.60;;;;;;;-146.27;94.93;39407.19;5069415;28;20098;-71
2024/01/05 01:09:02;;;;;;;24.70;4.25;;;;;;;-146.27;94.83;39440.97;5077558;28;20034;-71
2024/01/05 01:11:27;;;;;;;28.20;4.72;;;;;;;-146.27;94.86;39403.22;5067041;28;20451;-71
2024/01/05 01:13:53;;;;;;;24.63;4.45;;;;;;;-146.27;95.00;39431.03;5065743;28;20052;-71
2024/01/05 01:16:18;;;;;;;26.20;5.13;;;;;;;-146.27;94.71;39415.13;5048982;28;20024;-71
2024/01/05 01:18:44;;;;;;;20.80;4.70;;;;;;;-146.27;94.80;39403.22;5064153;28;20111;-71
2024/01/05 01:21:09;;;;;;;24.58;4.60;;;;;;;-146.27;94.66;39423.09;5052737;28;20025;-72
2024/01/05 01:23:34;;;;;;;24.63;4.40;;;;;;;-146.27;94.65;39415.13;5069466;28;20028;-71
2024/01/05 01:26:00;;;;;;;16.48;4.32;;;;;;;-146.27;94.75;39395.25;5063521;28;20121;-72
2024/01/05 01:28:25;;;;;;;17.92;4.80;;;;;;;-146.27;94.80;39393.28;5067986;28;20028;-71
2024/01/05 01:30:51;;;;;;;20.02;4.80;;;;;;;-146.27;94.59;39361.47;5062924;28;20609;-71
2024/01/05 01:33:16;;;;;;;19.27;4.50;;;;;;;-146.27;94.64;39421.09;5060521;28;20383;-71
2024/01/05 01:35:41;;;;;;;24.70;5.40;;;;;;;-146.27;94.95;39413.16;5063820;28;20037;-72
2024/01/05 01:38:07;;;;;;;25.23;5.07;;;;;;;-146.27;95.04;39407.19;5053788;28;20060;-71
2024/01/05 01:40:32;;;;;;;21.17;4.60;;;;;;;-146.27;94.79;39383.34;5066984;28;20059;-71
2024/01/05 01:42:57;;;;;;;25.45;4.80;;;;;;;-146.27;95.04;39411.16;5066299;28;20090;-71
2024/01/05 01:45:23;;;;;;;27.75;5.75;;;;;;;-146.27;94.90;39393.28;5066952;28;20036;-71
2024/01/05 01:47:49;;;;;;;28.20;4.07;;;;;;;-146.27;94.70;39365.47;5070048;28;20040;-71
2024/01/05 01:50:15;;;;;;;20.15;4.68;;;;;;;-146.27;94.94;39383.34;5069013;28;20024;-71
2024/01/05 01:52:45;;;;;;;20.23;3.90;;;;;;;-146.27;95.02;39363.47;5069476;28;20524;-71
2024/01/05 01:55:12;;;;;;;18.73;3.92;;;;;;;-146.27;95.04;39373.41;5067265;28;20036;-71
2024/01/05 01:57:38;;;;;;;20.23;4.00;;;;;;;-146.27;94.99;39343.59;5067366;28;20032;-71
2024/01/05 02:00:04;;;;;;;22.00;3.72;;;;;;;-146.27;94.59;39371.41;5066919;28;20051;-71
2024/01/05 02:02:30;;;;;;;20.88;3.97;;;;;;;-146.27;94.82;39379.38;5071928;28;20071;-71
2024/01/05 02:04:56;;;;;;;26.00;6.35;;;;;;;-146.27;94.98;39329.69;5071650;28;20532;-71
2024/01/05 02:07:22;;;;;;;12.63;3.10;;;;;;;-146.27;95.05;39323.72;5055681;28;20025;-71
2024/01/05 02:09:47;;;;;;;13.63;3.50;;;;;;;-146.27;94.86;39323.72;5054119;28;20100;-71
2024/01/05 02:12:13;;;;;;;20.08;3.95;;;;;;;-146.27;94.76;39333.66;5068284;28;20039;-72
2024/01/05 02:14:38;;;;;;;19.67;3.42;;;;;;;-146.27;94.72;39307.81;5073663;28;20043;-71
2024/01/05 02:17:04;;;;;;;15.52;3.05;;;;;;;-146.27;94.59;39319.75;5071383;28;20286;-71
2024/01/05 02:19:30;;;;;;;14.75;3.45;;;;;;;-146.27;94.53;39343.59;5066785;28;20036;-71
2024/01/05 02:21:58;;;;;;;21.10;3.60;;;;;;;-146.27;94.56;39351.53;5071310;28;20028;-71
2024/01/05 02:24:23;;;;;;;19.88;3.47;;;;;;;-146.27;94.94;39363.47;5068331;28;20063;-74
2024/01/05 02:26:49;;;;;;;24.40;3.45;;;;;;;-146.27;95.03;39307.81;5066351;28;20431;-71
2024/01/05 02:29:20;;;;;;;16.48;3.47;;;;;;;-146.27;94.99;39343.59;5067130;28;20032;-72
2024/01/05 02:31:45;;;;;;;19.45;3.75;;;;;;;-146.27;94.96;39307.81;5069642;28;20032;-71
2024/01/05 02:34:10;;;;;;;17.73;3.03;;;;;;;-146.27;94.78;39339.63;5071169;28;20024;-72
2024/01/05 02:36:36;;;;;;;19.23;3.20;;;;;;;-146.27;94.95;39317.75;5069605;28;20024;-71
2024/01/05 02:39:01;;;;;;;19.83;3.00;;;;;;;-146.27;94.78;39341.59;5076963;28;20020;-72
2024/01/05 02:41:26;;;;;;;17.73;2.50;;;;;;;-146.27;94.88;39321.75;5067823;28;20035;-71
2024/01/05 02:43:52;;;;;;;16.27;3.38;;;;;;;-146.27;94.85;39331.69;5067692;28;20032;-71
2024/01/05 02:46:17;;;;;;;15.07;2.78;;;;;;;-146.27;94.56;39276.03;5062919;28;20387;-72
2024/01/05 02:48:42;;;;;;;18.25;2.63;;;;;;;-146.27;94.27;39303.84;5066856;28;20475;-72
2024/01/05 02:51:07;;;;;;;14.27;3.17;;;;;;;-146.27;94.59;39311.81;5068451;28;20511;-72
2024/01/05 02:53:33;;;;;;;11.23;2.47;;;;;;;-146.27;94.81;39311.81;5070125;28;20483;-71
2024/01/05 02:55:58;;;;;;;13.57;2.65;;;;;;;-146.27;94.84;39331.69;5068802;28;20523;-71
2024/01/05 02:58:23;;;;;;;21.25;2.75;;;;;;;-146.27;94.15;39232.31;5062458;28;20510;-71
2024/01/05 03:00:49;;;;;;;12.00;2.30;;;;;;;-146.27;94.40;39268.09;5065003;28;20079;-71
2024/01/05 03:03:14;;;;;;;16.98;2.60;;;;;;;-146.27;94.37;39363.47;5069159;28;20491;-71
2024/01/05 03:05:39;;;;;;;12.48;2.63;;;;;;;-146.27;94.11;39287.97;5057767;28;20399;-70
2024/01/05 03:08:06;;;;;;;18.58;2.40;;;;;;;-146.27;93.79;39287.97;5068517;28;20107;-71
2024/01/05 03:10:31;;;;;;;8.30;2.17;;;;;;;-146.27;93.48;39333.66;5079326;28;20653;-72
2024/01/05 03:12:56;;;;;;;14.55;2.38;;;;;;;-146.27;93.33;39347.56;5070047;28;20024;-71
2024/01/05 03:15:22;;;;;;;7.93;1.70;;;;;;;-146.27;93.28;39345.59;5068778;28;20278;-71
2024/01/05 03:17:48;;;;;;;15.43;2.03;;;;;;;-146.27;93.35;39351.53;5058155;28;20020;-71
2024/01/05 03:20:14;;;;;;;11.52;1.92;;;;;;;-146.27;93.11;39383.34;5073595;28;20063;-72
2024/01/05 03:22:40;;;;;;;10.60;2.90;;;;;;;-146.27;93.46;39419.09;5064421;28;20056;-72
2024/01/05 03:25:06;;;;;;;16.25;2.90;;;;;;;-146.27;93.44;39371.41;5058185;28;20485;-72
2024/01/05 03:27:31;;;;;;;13.70;2.22;;;;;;;-146.27;93.59;39375.41;5065046;28;20078;-72
2024/01/05 03:29:56;;;;;;;19.65;2.65;;;;;;;-146.27;93.79;39341.59;5073575;28;20032;-71
2024/01/05 03:32:22;;;;;;;7.25;1.60;;;;;;;-146.27;93.49;39327.69;5055083;28;20111;-72
2024/01/05 03:34:47;;;;;;;13.98;2.38;;;;;;;-146.27;93.15;39353.53;5064509;28;20020;-72
2024/01/05 03:37:12;;;;;;;14.57;2.60;;;;;;;-146.27;93.31;39363.47;5069222;28;20035;-71
2024/01/05 03:39:38;;;;;;;12.10;2.17;;;;;;;-146.27;93.19;39377.38;5076583;28;20024;-71
2024/01/05 03:42:03;;;;;;;19.02;3.20;;;;;;;-146.27;93.06;39377.38;5072730;28;20035;-72
2024/01/05 03:44:29;;;;;;;9.18;2.10;;;;;;;-146.27;92.87;39387.31;5068672;28;20059;-71
2024/01/05 03:46:54;;;;;;;18.95;2.08;;;;;;;-146.27;92.87;39407.19;5069023;28;20551;-72
2024/01/05 03:49:20;;;;;;;8.52;1.90;;;;;;;-146.27;92.64;39423.09;5066786;28;20030;-71
2024/01/05 03:51:45;;;;;;;7.20;1.90;;;;;;;-146.27;93.07;39460.84;5063982;28;20264;-72
2024/01/05 03:54:10;;;;;;;8.68;1.80;;;;;;;-146.27;92.81;39429.03;5056129;28;20039;-72
2024/01/05 03:56:40;;;;;;;8.10;1.73;;;;;;;-146.27;92.69;39431.03;5067140;28;20028;-72
2024/01/05 03:59:06;;;;;;;12.93;1.88;;;;;;;-146.27;92.53;39435.00;5082688;28;20042;-72
2024/01/05 04:01:33;;;;;;;15.40;1.73;;;;;;;-146.27;92.65;39466.81;5063884;28;20033;-71
2024/01/05 04:03:59;;;;;;;9.18;1.65;;;;;;;-146.27;92.78;39466.81;5067672;28;20021;-72
2024/01/05 04:06:24;;;;;;;13.27;2.50;;;;;;;-146.27;92.90;39405.19;5064989;28;20035;-72
2024/01/05 04:08:51;;;;;;;12.13;1.65;;;;;;;-146.27;92.77;39460.84;5067354;28;20040;-72
2024/01/05 04:11:21;;;;;;;12.40;2.05;;;;;;;-146.27;92.88;39460.84;5067309;28;20044;-72
2024/01/05 04:13:47;;;;;;;11.25;1.75;;;;;;;-146.27;92.92;39484.69;5067895;28;20366;-72
2024/01/05 04:16:13;;;;;;;11.95;2.20;;;;;;;-146.27;92.84;39488.66;5061692;28;20023;-71
2024/01/05 04:18:39;;;;;;;5.00;1.77;;;;;;;-146.27;92.73;39498.59;5054090;28;20400;-71
2024/01/05 04:21:04;;;;;;;9.18;1.63;;;;;;;-146.27;92.82;39496.63;5072496;28;20051;-71
2024/01/05 04:23:29;;;;;;;10.57;1.77;;;;;;;-146.27;92.82;39498.59;5068650;28;20090;-72
2024/01/05 04:25:55;;;;;;;11.52;1.95;;;;;;;-146.27;92.76;39500.59;5065326;28;20035;-71
2024/01/05 04:28:21;;;;;;;8.15;1.90;;;;;;;-146.27;92.75;39500.59;5064628;28;20579;-72
2024/01/05 04:30:47;;;;;;;17.73;2.22;;;;;;;-146.27;92.80;39508.53;5066662;28;20028;-70
2024/01/05 04:33:12;;;;;;;18.10;2.10;;;;;;;-146.27;92.88;39474.75;5067651;28;20395;-71
2024/01/05 04:35:37;;;;;;;16.77;2.13;;;;;;;-146.27;92.97;39490.66;5067452;28;20501;-71
2024/01/05 04:38:03;;;;;;;11.13;1.63;;;;;;;-146.27;92.97;39419.09;5076259;28;20609;-71
2024/01/05 04:40:29;;;;;;;8.27;1.80;;;;;;;-146.27;92.88;39510.53;5073445;28;20387;-72
2024/01/05 04:42:54;;;;;;;5.38;1.42;;;;;;;-146.27;92.96;39478.72;5067515;28;20263;-72
2024/01/05 04:45:20;;;;;;;4.95;1.73;;;;;;;-146.27;92.94;39478.72;5066696;28;20472;-72
2024/01/05 04:47:46;;;;;;;13.63;1.70;;;;;;;-146.27;92.79;39512.50;5067256;28;20021;-72
2024/01/05 04:50:12;;;;;;;7.65;1.58;;;;;;;-146.27;92.91;39478.72;5072074;28;20107;-72
2024/01/05 04:52:37;;;;;;;6.78;1.92;;;;;;;-146.27;92.96;39490.66;5066844;28;20032;-72
2024/01/05 04:55:04;;;;;;;8.45;1.88;;;;;;;-146.27;92.88;39522.44;5066225;28;20024;-71
2024/01/05 04:57:30;;;;;;;15.02;2.15;;;;;;;-146.27;93.19;39454.88;5065102;28;20028;-72
2024/01/05 04:59:55;;;;;;;10.70;1.38;;;;;;;-146.27;93.12;39510.53;5059901;28;20574;-72
2024/01/05 05:02:20;;;;;;;6.25;1.52;;;;;;;-146.27;93.53;39504.56;5066974;28;20419;-70
2024/01/05 05:04:46;;;;;;;6.07;1.40;;;;;;;-146.27;93.52;39530.41;5065984;28;20028;-71
2024/01/05 05:07:11;;;;;;;8.20;1.58;;;;;;;-146.27;93.71;39572.13;5067335;28;20037;-72
2024/01/05 05:09:36;;;;;;;6.40;1.20;;;;;;;-146.27;93.49;39681.44;5066906;28;20028;-71
2024/01/05 05:12:02;;;;;;;7.30;1.50;;;;;;;-146.27;93.07;39661.56;5068490;28;20439;-72
2024/01/05 05:14:28;;;;;;;5.72;1.00;;;;;;;-146.27;93.03;39705.28;5066157;28;20029;-72
2024/01/05 05:16:53;;;;;;;4.20;1.10;;;;;;;-146.27;93.71;39739.06;5061436;28;20050;-72
2024/01/05 05:19:18;;;;;;;7.15;1.33;;;;;;;-146.27;93.02;39695.34;5075254;28;20509;-72
2024/01/05 05:21:44;;;;;;;5.75;1.25;;;;;;;-146.27;93.63;39792.72;5075399;28;20024;-71
2024/01/05 05:24:09;;;;;;;5.40;0.85;;;;;;;-146.27;92.94;39872.22;5073299;28;20040;-72
2024/01/05 05:26:35;;;;;;;0.45;0.43;;;;;;;-146.27;92.30;39913.97;5073151;28;20025;-72
2024/01/05 05:29:00;;;;;;;1.63;0.60;;;;;;;-146.27;91.98;39993.44;5075700;28;20107;-72
2024/01/05 05:31:26;;;;;;;0.95;0.57;;;;;;;-146.27;91.50;40110.72;5070597;28;20086;-72
2024/01/05 05:33:51;;;;;;;4.00;0.65;;;;;;;-146.27;91.62;40027.25;5071014;28;20036;-72
2024/01/05 05:36:16;;;;;;;3.83;0.98;;;;;;;-146.27;90.96;40210.09;5071095;28;20052;-76
2024/01/05 05:38:42;;;;;;;3.13;0.50;;;;;;;-146.27;90.65;40132.59;5066143;28;20039;-71
2024/01/05 05:41:07;;;;;;;2.50;0.70;;;;;;;-146.27;90.36;40182.28;5070944;28;20139;-72
2024/01/05 05:43:32;;;;;;;2.60;0.70;;;;;;;-146.27;90.30;40194.19;5071242;28;20124;-72
2024/01/05 05:45:58;;;;;;;3.47;0.40;;;;;;;-146.27;90.45;40210.09;5068395;28;20107;-72
2024/01/05 05:48:24;;;;;;;8.20;0.70;;;;;;;-146.27;89.90;40301.53;5069209;28;20108;-72
2024/01/05 05:50:49;;;;;;;2.63;0.55;;;;;;;-146.27;89.42;40500.31;5076411;28;20028;-72
2024/01/05 05:53:14;;;;;;;2.58;0.40;;;;;;;-146.27;88.92;40536.06;5072974;28;20019;-72
2024/01/05 05:55:39;;;;;;;1.15;0.38;;;;;;;-146.27;87.64;40866.06;5070923;28;20028;-72
2024/01/05 05:58:05;;;;;;;1.83;0.30;;;;;;;-146.27;87.46;41021.13;5068476;28;20024;-71
2024/01/05 06:00:31;;;;;;;1.40;0.45;;;;;;;-146.27;86.75;41140.41;5059832;28;20044;-72
2024/01/05 06:02:56;;;;;;;1.33;0.43;;;;;;;-146.27;86.11;41235.84;5063597;28;20036;-71
2024/01/05 06:05:22;;;;;;;0.68;0.40;;;;;;;-146.27;86.16;41200.06;5069304;28;20035;-70
2024/01/05 06:07:47;;;;;;;2.00;0.20;;;;;;;-146.27;86.46;41275.59;5061720;28;20017;-72
2024/01/05 06:10:12;;;;;;;1.15;0.50;;;;;;;-146.27;85.51;41414.78;5066993;28;20020;-71
2024/01/05 06:12:38;;;;;;;1.88;0.40;;;;;;;-146.27;85.44;41496.28;5058930;28;20033;-71
2024/01/05 06:15:04;;;;;;;1.60;0.52;;;;;;;-146.27;84.88;41514.19;5069176;28;20070;-72
2024/01/05 06:17:29;;;;;;;2.40;0.50;;;;;;;-146.27;85.10;41510.22;5068660;28;20577;-72
2024/01/05 06:19:55;;;;;;;1.75;0.50;;;;;;;-146.27;85.17;41549.97;5070984;28;20028;-71
2024/01/05 06:22:20;;;;;;;0.55;0.30;;;;;;;-146.27;85.34;41581.78;5068203;28;20024;-72
2024/01/05 06:24:46;;;;;;;1.08;0.50;;;;;;;-146.27;85.88;41373.03;5073421;28;20081;-72
2024/01/05 06:27:12;;;;;;;0.40;0.40;;;;;;;-146.27;87.07;41150.34;5068687;28;20107;-71
2024/01/05 06:29:37;;;;;;;0.77;0.45;;;;;;;-146.27;88.19;40939.63;5062706;28;20499;-72
2024/01/05 06:32:03;;;;;;;3.35;0.52;;;;;;;-146.27;88.29;40776.59;5060958;28;20428;-72
2024/01/05 06:34:29;;;;;;;2.85;0.80;;;;;;;-146.27;90.44;40490.34;5061844;28;20093;-72
2024/01/05 06:36:55;;;;;;;1.00;0.60;;;;;;;-146.27;88.94;40591.72;5069078;28;20021;-71
2024/01/05 06:39:20;;;;;;;1.95;0.60;;;;;;;-146.27;88.73;40615.59;5066711;28;20036;-72
2024/01/05 06:41:46;;;;;;;1.58;0.73;;;;;;;-146.27;89.70;40571.84;5057280;28;20035;-72
2024/01/05 06:44:11;;;;;;;0.93;0.50;;;;;;;-146.27;89.94;40500.31;5070093;28;20052;-72
2024/01/05 06:46:36;;;;;;;0.98;0.47;;;;;;;-146.27;90.94;40428.75;5087824;28;20032;-72
2024/01/05 06:49:03;;;;;;;0.65;0.65;;;;;;;-146.27;91.60;40309.47;5062812;28;20064;-72
2024/01/05 06:51:29;;;;;;;0.70;0.70;;;;;;;-146.27;90.80;40337.31;5066499;28;20024;-72
2024/01/05 06:53:57;;;;;;;6.07;0.77;;;;;;;-146.27;90.33;40410.84;5069353;28;20025;-72
2024/01/05 06:56:23;;;;;;;0.73;0.70;;;;;;;-146.27;91.23;40309.47;5061968;28;20039;-71
2024/01/05 06:58:49;;;;;;;4.93;0.88;;;;;;;-146.27;90.75;40333.34;5062077;28;20479;-72
2024/01/05 07:01:17;;;;;;;3.67;1.20;;;;;;;-146.27;90.96;40325.38;5062863;28;20037;-71
2024/01/05 07:03:43;;;;;;;1.00;0.70;;;;;;;-146.27;90.77;40325.38;5063465;28;20480;-72
2024/01/05 07:06:10;;;;;;;0.75;0.70;;;;;;;-146.27;90.32;40347.25;5069702;28;20028;-71
2024/01/05 07:08:35;;;;;;;1.60;0.90;;;;;;;-146.27;90.84;40285.63;5057321;28;20033;-72
2024/01/05 07:11:00;;;;;;;1.25;0.90;;;;;;;-146.27;90.57;40337.31;5066528;28;20025;-71
2024/01/05 07:13:26;;;;;;;5.03;1.10;;;;;;;-146.27;90.83;40313.44;5064162;28;20127;-72
2024/01/05 07:15:52;;;;;;;2.25;1.02;;;;;;;-146.27;91.24;40255.81;5069466;28;20499;-72
2024/01/05 07:18:17;;;;;;;3.70;1.20;;;;;;;-146.27;91.31;40301.53;5072482;28;20020;-73
2024/01/05 07:20:42;;;;;;;5.57;1.10;;;;;;;-146.27;91.04;40285.63;5065719;28;20542;-71
2024/01/05 07:23:08;;;;;;;1.42;1.33;;;;;;;-146.27;90.66;40345.25;5086254;28;20175;-72
2024/01/05 07:25:33;;;;;;;3.47;1.10;;;;;;;-146.27;91.10;40297.56;5065681;28;20084;-72
2024/01/05 07:27:59;;;;;;;5.57;1.30;;;;;;;-146.27;91.21;40313.44;5067314;28;20089;-72
2024/01/05 07:30:24;;;;;;;2.63;1.30;;;;;;;-146.27;91.55;40269.72;5068345;28;20040;-72
2024/01/05 07:32:50;;;;;;;3.75;1.20;;;;;;;-146.27;91.25;40303.50;5058860;28;20505;-71
2024/01/05 07:35:15;;;;;;;1.52;1.10;;;;;;;-146.27;91.26;40293.56;5066892;28;20036;-72
2024/01/05 07:37:40;;;;;;;2.15;1.27;;;;;;;-146.27;91.32;40295.56;5069606;28;20027;-71
2024/01/05 07:40:06;;;;;;;1.98;1.02;;;;;;;-146.27;91.37;40277.69;5061819;28;20029;-72
2024/01/05 07:42:31;;;;;;;3.58;1.00;;;;;;;-146.27;91.34;40293.56;5063512;28;20356;-71
2024/01/05 07:44:57;;;;;;;1.50;1.23;;;;;;;-146.27;92.20;40283.63;5063871;28;20496;-73
2024/01/05 07:47:23;;;;;;;3.67;1.23;;;;;;;-146.27;92.09;40231.97;5071987;28;20675;-71
2024/01/05 07:49:49;;;;;;;1.90;1.20;;;;;;;-146.27;92.60;40202.16;5075372;28;20020;-71
2024/01/05 07:52:14;;;;;;;1.67;1.10;;;;;;;-146.27;92.12;40174.31;5067153;28;20362;-71
2024/01/05 07:54:40;;;;;;;3.72;1.38;;;;;;;-146.27;91.96;40202.16;5066687;28;20078;-72
2024/01/05 07:57:07;;;;;;;4.72;1.42;;;;;;;-146.27;92.23;40239.91;5059998;28;20761;-72
2024/01/05 07:59:33;;;;;;;3.17;1.98;;;;;;;-146.27;92.31;40180.28;5060574;28;20465;-72
2024/01/05 08:01:58;;;;;;;1.70;1.60;;;;;;;-146.27;92.38;40146.50;5057589;28;20381;-71
2024/01/05 08:04:23;;;;;;;2.85;1.90;;;;;;;-146.27;92.42;40194.19;5067987;28;20029;-72
2024/01/05 08:06:49;;;;;;;1.85;1.58;;;;;;;-146.27;92.71;40200.16;5069576;28;20032;-72
2024/01/05 08:09:15;;;;;;;5.05;2.20;;;;;;;-146.27;92.80;40128.59;5069311;28;20021;-71
2024/01/05 08:11:41;;;;;;;3.10;2.80;;;;;;;-146.27;93.03;40156.44;5066383;28;20041;-72
2024/01/05 08:14:10;;;;;;;5.28;2.67;;;;;;;-146.27;93.13;40146.50;5060305;28;20036;-72
2024/01/05 08:16:36;;;;;;;5.38;2.20;;;;;;;-146.27;93.03;40146.50;5067335;28;20034;-72
2024/01/05 08:19:01;;;;;;;6.40;2.53;;;;;;;-146.27;92.65;40142.53;5067256;28;20415;-71
2024/01/05 08:21:26;;;;;;;7.53;2.83;;;;;;;-146.27;92.69;40122.66;5065384;28;20028;-71
2024/01/05 08:23:52;;;;;;;4.63;2.17;;;;;;;-146.27;94.12;40110.72;5072832;28;21097;-72
2024/01/05 08:26:18;;;;;;;3.67;2.30;;;;;;;-146.27;93.58;40114.69;5070828;28;20494;-72
2024/01/05 08:28:44;;;;;;;6.70;3.47;;;;;;;-146.27;93.41;40104.75;5067444;28;20482;-72
2024/01/05 08:31:09;;;;;;;3.75;2.90;;;;;;;-146.27;93.20;40098.78;5063174;28;20027;-72
2024/01/05 08:33:35;;;;;;;2.65;2.35;;;;;;;-146.27;93.40;40086.88;5075579;28;20028;-71
2024/01/05 08:36:00;;;;;;;3.53;2.78;;;;;;;-146.27;93.08;40092.84;5064711;28;20022;-72
2024/01/05 08:38:26;;;;;;;5.43;3.33;;;;;;;-146.27;93.45;40082.91;5075592;28;20099;-73
2024/01/05 08:40:52;;;;;;;6.50;3.22;;;;;;;-146.27;93.70;40051.09;5073420;28;20494;-73
2024/01/05 08:43:18;;;;;;;4.55;3.50;;;;;;;-146.27;93.94;40088.84;5065796;28;20021;-71
2024/01/05 08:45:44;;;;;;;5.32;3.65;;;;;;;-146.27;93.76;40084.88;5077146;28;20027;-72
2024/01/05 08:48:11;;;;;;;12.38;4.72;;;;;;;-146.27;93.65;40074.94;5066219;28;20403;-71
2024/01/05 08:50:37;;;;;;;6.68;4.35;;;;;;;-146.27;94.07;40041.16;5060432;28;20032;-72
2024/01/05 08:53:03;;;;;;;7.93;4.63;;;;;;;-146.27;94.70;40068.97;5065753;28;20481;-72
2024/01/05 08:55:28;;;;;;;8.02;4.85;;;;;;;-146.27;94.42;40027.25;5067369;28;20036;-71
2024/01/05 08:57:54;;;;;;;9.10;5.15;;;;;;;-146.27;94.67;40003.41;5081834;28;20028;-71
2024/01/05 09:00:19;;;;;;;10.82;5.13;;;;;;;-146.27;96.46;40031.22;5065534;28;20052;-72
2024/01/05 09:02:45;;;;;;;7.28;5.13;;;;;;;-146.27;95.69;40043.16;5067054;28;20025;-72
2024/01/05 09:05:10;;;;;;;9.80;5.60;;;;;;;-146.27;95.52;39979.53;5068003;28;20020;-72
2024/01/05 09:07:35;;;;;;;9.15;5.88;;;;;;;-146.27;96.22;39975.56;5057500;28;20027;-73
2024/01/05 09:10:01;;;;;;;10.48;5.53;;;;;;;-146.27;96.28;40013.34;5065495;28;20408;-73
2024/01/05 09:12:28;;;;;;;8.23;5.55;;;;;;;-146.27;96.88;39953.69;5066530;28;20507;-72
2024/01/05 09:14:54;;;;;;;9.32;5.93;;;;;;;-146.27;95.78;39965.63;5066258;28;20107;-72
2024/01/05 09:17:19;;;;;;;10.43;5.68;;;;;;;-146.27;96.32;39969.59;5064529;28;20033;-73
2024/01/05 09:19:44;;;;;;;16.63;6.40;;;;;;;-146.27;95.71;39939.78;5067354;28;20059;-72
2024/01/05 09:22:11;;;;;;;10.20;5.93;;;;;;;-146.27;95.25;39878.19;5065874;28;20025;-72
2024/01/05 09:24:36;;;;;;;9.38;5.97;;;;;;;-146.27;96.47;39913.97;5066904;28;20024;-73
2024/01/05 09:27:02;;;;;;;9.77;6.22;;;;;;;-146.27;96.71;39925.88;5065346;28;20020;-73
2024/01/05 09:29:29;;;;;;;11.73;6.40;;;;;;;-146.27;95.79;39919.91;5068365;28;20020;-72
2024/01/05 09:31:55;;;;;;;9.90;6.30;;;;;;;-146.27;95.89;39921.91;5067493;28;20446;-72
2024/01/05 09:34:20;;;;;;;9.45;6.28;;;;;;;-146.27;95.26;39872.22;5068603;28;20427;-72
2024/01/05 09:36:46;;;;;;;11.23;6.18;;;;;;;-146.27;95.15;39937.81;5067991;28;20071;-72
2024/01/05 09:39:12;;;;;;;10.45;6.30;;;;;;;-146.27;95.64;39935.81;5068427;28;20066;-72
2024/01/05 09:41:39;;;;;;;9.88;5.70;;;;;;;-146.27;95.45;39860.28;5055043;28;20063;-73
2024/01/05 09:44:05;;;;;;;13.07;7.60;;;;;;;-146.27;94.80;39880.16;5059578;28;20056;-72
2024/01/05 09:46:32;;;;;;;11.48;6.03;;;;;;;-146.27;94.48;39868.25;5070814;28;20098;-72
2024/01/05 09:49:02;;;;;;;9.52;6.20;;;;;;;-146.27;94.64;39900.03;5077482;28;20353;-72
2024/01/05 09:51:30;;;;;;;10.18;5.85;;;;;;;-146.27;94.67;39915.94;5067405;28;20051;-72
2024/01/05 09:53:56;;;;;;;10.48;6.25;;;;;;;-146.27;94.64;39896.06;5063019;28;20036;-72
2024/01/05 09:56:22;;;;;;;9.68;5.50;;;;;;;-146.27;94.38;39939.78;5062452;28;20400;-72
2024/01/05 09:58:51;;;;;;;11.68;6.80;;;;;;;-146.27;94.56;39911.97;5064441;28;20130;-72
2024/01/05 10:01:30;;;;;;;9.45;5.75;;;;;;;-146.27;94.67;40003.41;5067479;28;20074;-72
2024/01/05 10:04:01;;;;;;;11.30;5.40;;;;;;;-146.27;95.20;40005.38;5064337;28;20024;-72
2024/01/05 10:06:28;;;;;;;10.75;6.03;;;;;;;-146.27;95.06;39973.59;5061750;28;20032;-71
2024/01/05 10:08:59;;;;;;;10.15;5.68;;;;;;;-146.27;94.90;39981.53;5064300;28;20030;-72
2024/01/05 10:11:35;;;;;;;9.57;5.65;;;;;;;-146.27;94.70;39945.75;5047655;28;20064;-71
2024/01/05 10:14:03;;;;;;;7.90;4.57;;;;;;;-146.27;94.59;39971.59;5051010;28;20079;-72
2024/01/05 10:16:36;;;;;;;8.43;5.18;;;;;;;-146.27;94.92;39953.69;5055578;28;20055;-72
2024/01/05 10:19:18;;;;;;;6.55;4.15;;;;;;;-146.27;94.67;39977.56;5056302;28;20036;-73
2024/01/05 10:21:46;;;;;;;9.32;5.28;;;;;;;-146.27;94.61;39963.66;5063075;28;20035;-72
2024/01/05 10:24:29;;;;;;;10.45;4.15;;;;;;;-146.27;94.82;39939.78;5067237;28;20028;-72
2024/01/05 10:27:02;;;;;;;7.15;3.58;;;;;;;-146.27;94.60;39886.13;5066757;28;20028;-72
2024/01/05 10:29:28;;;;;;;6.07;3.15;;;;;;;-146.27;94.66;39919.91;5068231;28;20072;-72
2024/01/05 10:31:53;;;;;;;5.25;3.08;;;;;;;-146.27;94.73;39842.41;5068555;28;20028;-72
2024/01/05 10:34:19;;;;;;;6.32;2.80;;;;;;;-146.27;94.57;39886.13;5073917;28;20020;-71
2024/01/05 10:36:44;;;;;;;6.07;3.10;;;;;;;-146.27;94.43;39872.22;5067970;28;20421;-72
2024/01/05 10:39:10;;;;;;;7.15;2.88;;;;;;;-146.27;94.50;39892.09;5068932;28;20031;-71
2024/01/05 10:41:36;;;;;;;6.82;2.90;;;;;;;-146.27;94.19;39824.53;5076957;28;20032;-71
2024/01/05 10:44:03;;;;;;;6.97;3.30;;;;;;;-146.27;94.05;39868.25;5065362;28;20047;-71
2024/01/05 10:46:31;;;;;;;4.65;2.70;;;;;;;-146.27;93.88;39816.56;5057110;28;20036;-71
2024/01/05 10:48:56;;;;;;;5.55;2.60;;;;;;;-146.27;93.86;39838.44;5067535;28;20028;-72
2024/01/05 10:51:25;;;;;;;7.88;2.90;;;;;;;-146.27;95.04;39792.72;5062611;28;20029;-72
2024/01/05 10:53:51;;;;;;;4.22;3.22;;;;;;;-146.27;95.37;39824.53;5063870;28;20052;-71
2024/01/05 10:56:18;;;;;;;3.85;3.45;;;;;;;-146.27;95.66;39784.78;5067187;28;20039;-72
2024/01/05 10:58:44;;;;;;;4.45;2.80;;;;;;;-146.27;94.78;39739.06;5068697;28;21484;-72
2024/01/05 11:01:13;;;;;;;7.55;3.38;;;;;;;-146.27;95.93;39772.84;5064581;28;20028;-71
2024/01/05 11:03:50;;;;;;;10.60;3.65;;;;;;;-146.27;96.50;39735.09;5069297;28;20091;-71
2024/01/05 11:06:19;;;;;;;6.45;2.72;;;;;;;-146.27;95.70;39635.72;5069861;28;20058;-72
2024/01/05 11:09:05;;;;;;;8.23;3.03;;;;;;;-146.27;95.12;39677.47;5067860;28;20017;-71